Time,TemperatureF,DewpointF,PressureIn,WindDirection,WindDirectionDegrees,WindSpeedMPH,WindSpeedGustMPH,Humidity,HourlyPrecipIn,Conditions,Clouds,dailyrainin,SoftwareType,DateUTC
2015-04-26 00:00:00,44.8,39.3,29.88,West,270,0.0,0.0,81,0.00,CLR,,0.04,WeatherDisplay:10.37,2015-04-25 14:00:00,
2015-04-26 00:05:00,44.8,39.0,29.88,West,270,0.0,0.0,80,0.00,CLR,,0.04,WeatherDisplay:10.37,2015-04-25 14:05:00,
2015-04-26 00:10:00,44.6,38.8,29.88,NNW,338,0.0,0.0,80,0.00,CLR,,0.04,WeatherDisplay:10.37,2015-04-25 14:10:00,
2015-04-26 00:15:00,44.8,39.6,29.88,ENE,68,0.0,0.0,82,0.00,CLR,,0.04,WeatherDisplay:10.37,2015-04-25 14:15:00,
2015-04-26 00:20:00,45.0,39.8,29.88,ENE,68,0.0,0.0,82,0.00,CLR,,0.04,WeatherDisplay:10.37,2015-04-25 14:20:00,
2015-04-26 00:25:00,45.1,40.3,29.88,ESE,112,1.2,0.0,83,0.00,CLR,,0.04,WeatherDisplay:10.37,2015-04-25 14:25:00,
2015-04-26 00:30:00,45.1,40.0,29.88,NNE,22,1.4,1.4,82,0.00,CLR,,0.04,WeatherDisplay:10.37,2015-04-25 14:30:00,
2015-04-26 00:35:00,45.3,40.5,29.88,SW,225,1.2,0.0,83,0.00,CLR,,0.04,WeatherDisplay:10.37,2015-04-25 14:35:00,
2015-04-26 00:40:00,45.1,40.0,29.88,SE,135,0.0,0.0,82,0.00,CLR,,0.04,WeatherDisplay:10.37,2015-04-25 14:40:00,
2015-04-26 00:45:00,45.1,39.7,29.88,SE,135,0.0,0.0,81,0.00,CLR,,0.04,WeatherDisplay:10.37,2015-04-25 14:45:00,
2015-04-26 00:50:00,45.1,40.0,29.88,SE,135,0.0,0.0,82,0.00,CLR,,0.04,WeatherDisplay:10.37,2015-04-25 14:50:00,
2015-04-26 00:55:00,45.0,39.8,29.91,North,0,0.0,0.0,82,0.00,CLR,,0.04,WeatherDisplay:10.37,2015-04-25 14:55:00,
2015-04-26 01:00:00,45.0,39.8,29.91,North,0,1.2,0.0,82,0.00,CLR,,0.04,WeatherDisplay:10.37,2015-04-25 15:00:00,
2015-04-26 01:05:00,44.8,39.6,29.91,South,180,0.0,0.0,82,0.00,CLR,,0.04,WeatherDisplay:10.37,2015-04-25 15:05:00,
2015-04-26 01:10:00,44.6,39.1,29.91,SE,135,0.0,0.0,81,0.00,CLR,,0.04,WeatherDisplay:10.37,2015-04-25 15:10:00,
2015-04-26 01:15:00,44.4,39.3,29.91,North,0,1.2,0.0,82,0.00,CLR,,0.04,WeatherDisplay:10.37,2015-04-25 15:15:00,
2015-04-26 01:20:00,44.1,38.6,29.91,East,90,0.0,0.0,81,0.00,CLR,,0.04,WeatherDisplay:10.37,2015-04-25 15:20:00,
2015-04-26 01:25:00,44.1,38.9,29.88,East,90,0.0,0.0,82,0.00,CLR,,0.04,WeatherDisplay:10.37,2015-04-25 15:25:00,
2015-04-26 01:30:00,43.9,38.7,29.88,ESE,112,0.0,0.0,82,0.00,CLR,,0.04,WeatherDisplay:10.37,2015-04-25 15:30:00,
2015-04-26 01:35:00,44.1,38.9,29.88,ESE,112,0.0,0.0,82,0.00,CLR,,0.04,WeatherDisplay:10.37,2015-04-25 15:35:00,
2015-04-26 01:40:00,43.7,38.6,29.91,ESE,112,0.0,0.0,82,0.00,CLR,,0.04,WeatherDisplay:10.37,2015-04-25 15:40:00,
2015-04-26 01:45:00,43.5,38.4,29.91,ESE,112,0.0,0.0,82,0.00,CLR,,0.04,WeatherDisplay:10.37,2015-04-25 15:45:00,
2015-04-26 01:50:00,43.5,38.4,29.91,ESE,112,0.0,0.0,82,0.00,CLR,,0.04,WeatherDisplay:10.37,2015-04-25 15:50:00,
2015-04-26 01:55:00,43.5,38.7,29.88,ESE,112,0.0,0.0,83,0.00,CLR,,0.04,WeatherDisplay:10.37,2015-04-25 15:55:00,
2015-04-26 02:00:00,43.3,38.5,29.88,ESE,112,0.0,0.0,83,0.00,CLR,,0.04,WeatherDisplay:10.37,2015-04-25 16:00:00,
2015-04-26 02:05:00,43.2,38.3,29.88,ESE,112,0.0,0.0,83,0.00,CLR,,0.04,WeatherDisplay:10.37,2015-04-25 16:05:00,
2015-04-26 02:10:00,43.0,37.9,29.91,ESE,112,0.0,0.0,82,0.00,CLR,,0.04,WeatherDisplay:10.37,2015-04-25 16:10:00,